Aviation Digital Data Service (ADDS)

Output produced by METARs form (1441 UTC 20 September 2017)
found at http://www.aviationweather.gov/adds/metars/
 
TAF KYIP 201121Z 2012/2112 00000KT 1/4SM FG VV002 
     FM201300 VRB03KT 3/4SM BR OVC004 
     FM201400 13005KT 4SM BR BKN008 
     FM201600 16005KT P6SM BKN022 
     FM201900 17006KT P6SM BKN035 
     FM202100 15004KT P6SM SKC 
     FM210600 VRB03KT 3SM BR SCT008 BKN030
       
KYKM 201120Z 2012/2112 27005KT P6SM BKN050 
     FM201500 VRB05KT P6SM -SHRA OVC050 
     FM202100 VRB06KT P6SM VCSH BKN050 
     FM210100 29006KT P6SM SCT050
       
KYNG 201130Z 2012/2112 10003KT P6SM OVC120 
     TEMPO 2012/2014 3SM BR BKN020 
     FM202000 05006KT P6SM VCTS BKN035CB 
     FM202300 VRB03KT P6SM SCT040 
     FM210600 00000KT 3SM BR SKC